Regionale Übersicht

METAR und TAF

Mittwoch, 08. Juli 2020 - 02:55 Uhr

Beobachtete horizontale meteorologische Sicht an ausgewählten Flughäfen. Die vollständigen METARs und Flugwettervorhersagen (TAFs) sind verfügbar, wenn Sie auf das entsprechende Symbol mit der ICAO-Flughafenkennung klicken.

  • Luxemburg (ELLX)

    Taf: TAF ELLX 072300Z 0800/0906 26005KT CAVOK TEMPO 0810/0820 BKN013=

    Metar: METAR ELLX 080020Z AUTO 26004KT 9999 OVC054/// 14/08 Q1018 NOSIG=

  • Spangdahlem (ETAD)

    Taf: TAF ETAD 072000Z 0720/0902 25009KT 9999 BKN040 BKN080 QNH2998INS BECMG 0806/0807 23010G15KT 9999 SCT020 OVC030 QNH2996INS BECMG 0808/0809 24012G18KT 8000 -RA SCT010 OVC020 QNH2996INS BECMG 0810/0811 24012G18KT 8000 -RA SCT007 OVC010 QNH2995INS BECMG 0820/0821 24009KT 9999 NSW BKN007 OVC010 QNH2995INS BECMG 0822/0823 24009KT 6000 BR BKN005 OVC007 QNH2995INS TX17/0814Z TN12/0802Z LAST NO AMDS AFT 0720=

    Metar: METAR ETAD 072356Z AUTO 00000KT 9999 BKN060 14/08 A3005 RMK AO2 SLP160 T01390077 10194 20135 58006 CHINO RWY05 $=

  • Metz/Nancy (LFJL)

    Taf: TAF LFJL 072300Z 0800/0824 21003KT CAVOK BECMG 0808/0810 30010G20KT BECMG 0818/0821 36005KT=

    Metar: METAR LFJL 080030Z AUTO 20008KT CAVOK 14/08 Q1018 NOSIG=

  • Saarbrücken/Intl (EDDR)

    Taf: TAF EDDR 072300Z 0800/0824 20003KT CAVOK BECMG 0807/0809 27010KT BECMG 0817/0820 27003KT=

    Metar: METAR EDDR 080020Z VRB01KT CAVOK 12/07 Q1018=

  • Hahn (EDFH)

    Taf: TAF EDFH 072300Z 0800/0824 25005KT CAVOK BECMG 0806/0809 27010KT BECMG 0817/0820 24005KT TEMPO 0821/0824 3000 RADZ BKN008=

    Metar: METAR EDFH 080020Z 22006KT CAVOK 14/07 Q1018=

  • Ramstein (ETAR)

    Taf: TAF ETAR 071800Z 0718/0824 VRB06KT 9999 SCT060 QNH3005INS BECMG 0805/0806 23010G20KT 9999 SCT055 510004 QNH3004INS BECMG 0808/0809 25015G25KT 9999 SCT045 BKN070 520004 QNH3003INS BECMG 0817/0818 VRB06KT 9999 SCT030 BKN060 QNH3006INS TX25/0812Z TN09/0804Z=

    Metar: METAR ETAR 072356Z AUTO 00000KT 9999 FEW090 09/08 A3006 RMK AO2 SLP180 T00930082 10217 20082 58002 FZRANO $=

  • Nancy/Ochey (LFSO)

    Taf: TAF AMD LFSO 072211Z 0722/0821 CNL=

    Metar: METAR LFSO 080030Z AUTO 21003KT CAVOK 14/07 Q1019=

  • Liège Bierset (EBLG)

    Taf: TAF EBLG 072320Z 0800/0906 23006KT CAVOK TEMPO 0803/0821 3800 RA RADZ BKN007 BECMG 0805/0807 SCT008 BKN011 PROB30 TEMPO 0807/0809 BKN004 TEMPO 0900/0903 BKN004 TEMPO 0901/0906 BKN015 TEMPO 0901/0906 3800 RA RADZ BKN011=

    Metar: METAR EBLG 080020Z 27005KT 9999 -RA FEW025 14/10 Q1018 NOSIG=

  • Saint-Dizier (LFSI)

    Taf: TAF LFSI 072000Z 0721/0821 VRB02KT CAVOK=

    Metar: METAR LFSI 080030Z AUTO 11004KT CAVOK 12/09 Q1018=

  • Maastricht/Zuid Limburg (EHBK)

    Taf: TAF EHBK 072314Z 0800/0906 VRB03KT 9999 -RA BKN030 BECMG 0803/0806 23007KT 7000 RA BECMG 0809/0812 4000 RADZ BKN007 PROB40 0812/0906 2000 DZ BKN003=

    Metar: METAR EHBK 080025Z AUTO 24004KT 180V290 9999 -RA FEW002/// 15/12 Q1017=

  • Köln/Köln-Bonn (EDDK)

    Taf: TAF EDDK 072300Z 0800/0906 15003KT 9999 BKN030 BECMG 0802/0806 24005KT PROB40 TEMPO 0808/0812 4500 RADZ BKN012 BECMG 0816/0819 18004KT TEMPO 0816/0821 BKN012 BECMG 0821/0824 BKN012 TEMPO 0823/0906 3000 RADZ BKN008 BECMG 0901/0904 24006KT=

    Metar: METAR EDDK 080020Z 35006KT 310V020 9999 -RA FEW025 BKN040 14/11 Q1017 NOSIG=

  • Charleroi (EBCI)

    Taf: TAF EBCI 072320Z 0800/0906 24007KT CAVOK BECMG 0803/0805 BKN008 TEMPO 0803/0821 3800 RA RADZ PROB40 TEMPO 0807/0810 BKN004 TEMPO 0822/0901 BKN004 TEMPO 0900/0906 BKN015 TEMPO 0901/0906 3800 RA RADZ BKN011=

    Metar: METAR EBCI 080020Z 25007KT 9999 SCT040 BKN048 15/08 Q1018 NOSIG=

  • Wiesbaden (ETOU)

    Taf: TAF ETOU 072006Z 0720/0902 33006KT 9999 SCT045 BKN070 QNH3005INS BECMG 0806/0807 28012G18KT 9999 BKN060 610909 510063 QNH3004INS BECMG 0809/0810 29015G20KT 8000 -SHRA BKN030 610909 510063 QNH3003INS BECMG 0814/0815 23006KT 8000 -SHRA BKN012 610909 QNH3004INS TX20/0812Z TN13/0803Z=

    Metar: METAR ETOU 080000Z NIL=

  • Karlsruhe/Baden-Baden (EDSB)

    Taf: TAF EDSB 072300Z NIL=

    Metar: METAR EDSB 080020Z AUTO 20004KT 9999 NCD 12/09 Q1018=

  • Chalons/Vatry (LFOK)

    Taf: TAF LFOK 072300Z 0800/0824 VRB03KT CAVOK BECMG 0809/0812 28010KT=

    Metar: METAR LFOK 080030Z AUTO 34004KT CAVOK 14/09 Q1019 NOSIG=

  • Frankfurt/Main (EDDF)

    Taf: TAF EDDF 072300Z 0800/0906 20003KT CAVOK BECMG 0807/0809 27008KT BKN040 BECMG 0816/0818 19004KT PROB30 TEMPO 0900/0906 4000 RADZ=

    Metar: METAR EDDF 080020Z 18003KT CAVOK 15/08 Q1017 NOSIG=

  • Brüssel (EBBR)

    Taf: TAF EBBR 072320Z 0800/0906 24007KT CAVOK TEMPO 0802/0821 4000 RA RADZ BKN008 BECMG 0804/0806 BKN012 BECMG 0900/0902 BKN018 TEMPO 0901/0906 4000 RA BKN012=

    Metar: METAR EBBR 080020Z 25008KT CAVOK 15/09 Q1017 NOSIG=

  • Düsseldorf (EDDL)

    Taf: TAF EDDL 072300Z 0800/0906 VRB03KT 9999 BKN030 BECMG 0802/0806 23008KT PROB30 TEMPO 0803/0806 RA TEMPO 0806/0818 BKN012 PROB40 TEMPO 0810/0814 4000 RADZ BKN007 BECMG 0819/0822 BKN013 TEMPO 0820/0902 VRB03KT TEMPO 0823/0906 4500 -RADZ BKN007 PROB30 TEMPO 0903/0906 2000 DZRA BKN004=

    Metar: METAR EDDL 080020Z VRB02KT 9999 FEW020 13/12 Q1017 NOSIG=

  • Luxeuil (LFSX)

    Taf: TAF AMD LFSX 072057Z 0723/0821 CNL=

    Metar: METAR LFSX 080030Z AUTO 00000KT CAVOK 10/09 Q1019=

  • Eindhoven (EHEH)

    Taf: TAF EHEH 072342Z 0800/0906 23007KT 9999 OVC040 BECMG 0804/0806 4500 RA FEW010 SCT015 OVC020 BECMG 0808/0810 BKN005 OVC010 TEMPO 0808/0906 3000 RADZ SCT003 OVC005 PROB40 TEMPO 0812/0906 2000 DZRA SCT002 BKN003 OVC005=

    Metar: METAR EHEH 080025Z AUTO 19003KT 9999 -RA OVC037 14/11 Q1016 BLU=

  • Niederrhein (EDLV)

    Taf: TAF EDLV 072300Z NIL=

    Metar: METAR EDLV 080020Z NIL=

  • Dortmund/Wickede (EDLW)

    Taf: TAF EDLW 072300Z NIL=

    Metar: METAR EDLW 080020Z AUTO 20004KT 9999 // OVC022/// 13/11 Q1017=

  • Stuttgart/Echterdingen (EDDS)

    Taf: TAF EDDS 072300Z 0800/0824 24003KT CAVOK BECMG 0807/0809 27009KT BECMG 0817/0820 30003KT=

    Metar: METAR EDDS 080020Z VRB02KT CAVOK 12/07 Q1018=

  • Basel-Mühlhausen (LFSB)

    Taf: TAF LFSB 072300Z 0800/0824 VRB03KT CAVOK BECMG 0810/0812 27010KT BECMG 0818/0821 19004KT=

    Metar: METAR LFSB 080030Z AUTO 28001KT CAVOK 11/08 Q1019 NOSIG=

  • Lille (LFQQ)

    Taf: TAF LFQQ 072300Z 0800/0906 25008KT CAVOK BECMG 0801/0804 BKN013 OVC030 TEMPO 0804/0824 3000 RADZ OVC007 PROB40 TEMPO 0811/0824 OVC004=

    Metar: METAR LFQQ 080030Z AUTO 23005KT 9999 BKN038 OVC110 14/10 Q1017 BECMG BKN013 OVC030=

  • Paris/Charles de Gaulle (LFPG)

    Taf: TAF LFPG 072300Z 0800/0906 29010KT CAVOK TX26/0814Z TN12/0803Z=

    Metar: METAR LFPG 080030Z 30005KT CAVOK 15/09 Q1019 NOSIG=

  • Paderborn/Lippstadt (EDLP)

    Taf: TAF EDLP 072300Z NIL=

    Metar: METAR EDLP NIL=

  • Paris/Le Bourget (LFPB)

    Taf: TAF LFPB 072300Z 0800/0824 29010KT CAVOK=

    Metar: METAR LFPB 080030Z AUTO 29002KT CAVOK 16/10 Q1019 NOSIG=

  • Rotterdam (EHRD)

    Taf: TAF EHRD 072318Z 0800/0906 VRB03KT 9999 -RA FEW012 BKN030 BECMG 0801/0804 7000 -RADZ FEW008 BKN012 TEMPO 0803/0822 4000 RADZ BKN008 PROB40 TEMPO 0806/0906 2500 DZRA BKN004 PROB30 0815/0823 9999 NSW BKN030 BECMG 0822/0901 4000 RADZ BKN008=

    Metar: METAR EHRD 080025Z AUTO 24005KT 210V270 9000 DZ SCT026 OVC030 14/13 Q1016 NOSIG=

  • Zürich/Kloten (LSZH)

    Taf: TAF LSZH 072325Z 0800/0906 VRB03KT CAVOK TX27/0815Z TN09/0804Z TN14/0904Z PROB40 0811/0816 29010KT=

    Metar: METAR LSZH 080020Z NIL=

  • Oostende/Intl (EBOS)

    Taf: TAF EBOS 072320Z 0800/0906 25012KT CAVOK BECMG 0801/0803 BKN012 TEMPO 0801/0821 4000 RA RADZ BKN006 BECMG 0900/0902 BKN018 TEMPO 0901/0906 4000 RA BKN012=

    Metar: METAR COR EBOS 080020Z 23006KT 9999 -RA SCT012 BKN014 14/12 Q1017 TEMPO 4000 RA BKN006=

  • Paris/Orly (LFPO)

    Taf: TAF LFPO 072300Z 0800/0906 33005KT CAVOK=

    Metar: METAR LFPO 080030Z 34004KT CAVOK 16/10 Q1019 NOSIG=

  • Beauvais (LFOB)

    Taf: TAF LFOB 072300Z 0800/0824 29008KT CAVOK TEMPO 0806/0810 BKN013 OVC030=

    Metar: METAR LFOB 080030Z AUTO VRB02KT CAVOK 11/10 Q1019 NOSIG=

  • Münster/Intl (EDDG)

    Taf: TAF EDDG 072300Z 0800/0824 VRB02KT 9999 BKN030 TEMPO 0805/0810 BKN011 BECMG 0805/0808 24007KT BECMG 0814/0817 VRB02KT=

    Metar: METAR EDDG 080020Z 18003KT 160V220 9999 SCT031 SCT048 13/10 Q1016 NOSIG=

  • Illesheim (ETIK)

    Taf: TAF ETIK 072200Z 0722/0904 22009KT 9999 SCT180 QNH3005INS BECMG 0807/0808 27010KT 9999 BKN060 QNH3001INS TEMPO 0817/0822 9000 -RA TX22/0812Z TN12/0801Z=

    Metar: METAR ETIK 072356Z AUTO 00000KT 9999 FEW130 10/08 A3007 RMK AO2 SLP180 T00950079 10195 20090 57007 FZRANO $=

  • Duebendorf (LSMD)

    Taf: TAF LSMD 071625Z 0717/0823 VRB03KT CAVOK BECMG 0811/0813 30010KT BECMG 0815/0818 VRB03KT=

    Metar: METAR LSMD 080020Z AUTO 00000KT 9999NDV NCD 13/08 Q1020 RMK=

  • Villacoublay (LFPV)

    Taf: TAF LFPV 072000Z 0721/0821 33005KT CAVOK=

    Metar: METAR LFPV 080030Z AUTO 32005KT CAVOK 15/10 Q1019 NOSIG=

  • Payerne (LSMP)

    Taf: TAF LSMP 071625Z 0717/0823 05008KT CAVOK=

    Metar: METAR LSMP 080020Z AUTO VRB02KT 9999NDV NCD 13/10 Q1019 RMK=

  • Amsterdam/Schipol (EHAM)

    Taf: TAF EHAM 072318Z 0800/0906 VRB03KT 9999 -RA FEW012 BKN030 BECMG 0801/0804 7000 -RADZ FEW008 BKN012 PROB40 TEMPO 0803/0824 4000 RADZ BKN008 PROB40 0814/0824 9999 NSW BKN030 BECMG 0823/0902 4000 RADZ BKN008 PROB40 TEMPO 0902/0906 2500 DZRA BKN004=

    Metar: METAR EHAM 080025Z 16004KT 9999 -RA FEW003 SCT008 BKN035 13/12 Q1016 NOSIG=

  • Emmen (LSME)

    Taf: TAF LSME 071625Z 0717/0823 VRB03KT CAVOK PROB30 0811/0816 30010KT=

    Metar: METAR LSME 080020Z AUTO 00000KT 9999NDV NCD 14/09 Q1020 RMK=

  • Friedrichshafen (EDNY)

    Taf: TAF EDNY 072300Z 0800/0824 VRB03KT CAVOK BECMG 0807/0809 25008KT BECMG 0817/0819 VRB03KT=

    Metar: METAR EDNY 080020Z AUTO VRB01KT 9999 // NCD 10/08 Q1019=

  • Alpnach (LSMA)

    Taf: TAF LSMA 071625Z 0717/0823 05010KT CAVOK BECMG 0717/0720 VRB03KT BECMG 0808/0810 05010KT BECMG 0817/0820 VRB03KT=

    Metar: METAR LSMA 080020Z AUTO 23003KT 200V260 9999NDV NCD 15/12 Q1020 RMK=

  • Meiringen (LSMM)

    Taf: TAF LSMM 071625Z 0717/0823 VRB03KT CAVOK=

    Metar: METAR LSMM 080020Z AUTO 00000KT 9999NDV NCD 12/10 Q1020 RMK=

  • Nürnberg (EDDN)

    Taf: TAF EDDN 072300Z 0800/0824 13005KT CAVOK BECMG 0806/0808 26010KT TEMPO 0810/0814 26015G25KT BECMG 0816/0818 VRB03KT=

    Metar: METAR EDDN 080020Z 10006KT CAVOK 11/07 Q1018=

  • Rouen (LFOP)

    Taf: TAF LFOP 072300Z NIL=

    Metar: METAR LFOP 080030Z AUTO 20002KT CAVOK 11/10 Q1019=

  • Evreux (LFOE)

    Taf: TAF LFOE 072000Z 0721/0821 31006KT CAVOK=

    Metar: METAR LFOE 080030Z AUTO 23002KT CAVOK 12/09 Q1019 NOSIG=

  • Erfurt/Bindersleben (EDDE)

    Taf: TAF EDDE 072300Z 0800/0824 25005KT 9999 BKN035 TEMPO 0803/0810 RA BECMG 0806/0809 23010KT BECMG 0817/0820 21005KT=

    Metar: METAR EDDE 080020Z VRB01KT 9999 -RADZ FEW036 OVC045 13/10 Q1017=